createdAt,value
2019-04-27T00:02:18.176Z,9.70
2019-04-27T00:05:35.334Z,9.70
2019-04-27T00:08:50.098Z,9.70
2019-04-27T00:11:49.514Z,9.80
2019-04-27T00:14:37.954Z,9.90
2019-04-27T00:17:48.671Z,9.80
2019-04-27T00:20:50.151Z,9.80
2019-04-27T00:23:38.292Z,9.90
2019-04-27T00:26:27.395Z,9.90
2019-04-27T00:29:15.599Z,9.90
2019-04-27T00:32:04.227Z,9.90
2019-04-27T00:34:53.238Z,9.90
2019-04-27T00:37:53.094Z,10.00
2019-04-27T00:40:45.099Z,10.00
2019-04-27T00:43:33.383Z,9.90
2019-04-27T00:46:22.806Z,9.90
2019-04-27T00:49:11.651Z,9.90
2019-04-27T00:51:59.874Z,9.80
2019-04-27T00:54:48.411Z,9.80
2019-04-27T00:58:01.683Z,9.70
2019-04-27T01:00:59.047Z,9.60
2019-04-27T01:03:53.301Z,9.50
2019-04-27T01:06:43.769Z,9.60
2019-04-27T01:09:33.867Z,9.60
2019-04-27T01:12:23.672Z,9.60
2019-04-27T01:15:13.586Z,9.50
2019-04-27T01:18:12.340Z,9.50
2019-04-27T01:20:51.983Z,9.50
2019-04-27T01:23:41.140Z,9.50
2019-04-27T01:26:40.283Z,9.50
2019-04-27T01:29:29.138Z,9.40
2019-04-27T01:32:18.619Z,9.40
2019-04-27T01:35:08.536Z,9.30
2019-04-27T01:37:58.811Z,9.20
2019-04-27T01:40:46.475Z,9.30
2019-04-27T01:43:34.337Z,9.20
2019-04-27T01:46:22.323Z,9.10
2019-04-27T01:49:10.562Z,9.10
2019-04-27T01:51:59.414Z,9.10
2019-04-27T01:54:49.400Z,9.00
2019-04-27T01:57:38.669Z,9.00
2019-04-27T02:00:39.609Z,9.00
2019-04-27T02:03:59.069Z,9.00
2019-04-27T02:06:49.907Z,8.90
2019-04-27T02:09:38.754Z,8.90
2019-04-27T02:12:26.580Z,8.80
2019-04-27T02:15:14.491Z,8.80
2019-04-27T02:18:03.320Z,8.80
2019-04-27T02:20:51.359Z,8.80
2019-04-27T02:23:39.407Z,8.80
2019-04-27T02:26:29.821Z,8.70
2019-04-27T02:29:42.403Z,8.70
2019-04-27T02:33:04.856Z,8.70
2019-04-27T02:35:52.403Z,8.70
2019-04-27T02:38:40.616Z,8.60
2019-04-27T02:41:29.724Z,8.60
2019-04-27T02:44:22.846Z,8.60
2019-04-27T02:47:10.903Z,8.60
2019-04-27T02:50:00.677Z,8.50
2019-04-27T02:52:50.070Z,8.50
2019-04-27T02:55:39.721Z,8.50
2019-04-27T02:58:28.417Z,8.40
2019-04-27T03:01:16.812Z,8.40
2019-04-27T03:04:04.710Z,8.40
2019-04-27T03:06:52.587Z,8.40
2019-04-27T03:09:40.803Z,8.40
2019-04-27T03:12:33.753Z,8.30
2019-04-27T03:15:36.612Z,8.40
2019-04-27T03:18:33.517Z,8.40
2019-04-27T03:21:24.707Z,8.30
2019-04-27T03:24:13.307Z,8.50
2019-04-27T03:27:02.853Z,8.50
2019-04-27T03:29:51.219Z,8.60
2019-04-27T03:32:42.960Z,8.70
2019-04-27T03:35:35.333Z,8.80
2019-04-27T03:38:19.723Z,8.90
2019-04-27T03:41:09.541Z,8.90
2019-04-27T03:43:59.504Z,8.90
2019-04-27T03:46:49.629Z,9.00
2019-04-27T03:49:40.892Z,9.10
2019-04-27T03:52:36.319Z,9.10
2019-04-27T03:55:27.824Z,9.10
2019-04-27T03:58:23.887Z,9.10
2019-04-27T04:01:11.730Z,9.10
2019-04-27T04:04:00.035Z,9.10
2019-04-27T04:06:49.476Z,9.10
2019-04-27T04:09:40.832Z,9.10
2019-04-27T04:12:56.050Z,9.10
2019-04-27T04:16:00.276Z,9.00
2019-04-27T04:19:03.436Z,9.00
2019-04-27T04:21:51.610Z,9.00
2019-04-27T04:24:39.932Z,8.90
2019-04-27T04:27:29.951Z,8.80
2019-04-27T04:30:19.914Z,8.80
2019-04-27T04:33:10.201Z,8.80
2019-04-27T04:35:59.619Z,8.80
2019-04-27T04:38:47.101Z,8.70
2019-04-27T04:41:43.631Z,8.70
2019-04-27T04:44:41.989Z,8.80
2019-04-27T04:47:40.742Z,8.90
2019-04-27T04:50:30.452Z,9.10
2019-04-27T04:53:20.616Z,9.30
2019-04-27T04:56:09.009Z,9.40
2019-04-27T04:58:59.831Z,9.60
2019-04-27T05:01:49.708Z,9.70
2019-04-27T05:04:36.707Z,9.90
2019-04-27T05:07:24.627Z,9.90
2019-04-27T05:10:12.677Z,10.00
2019-04-27T05:13:00.738Z,10.10
2019-04-27T05:15:48.892Z,10.20
2019-04-27T05:18:39.274Z,10.30
2019-04-27T05:21:31.398Z,10.40
2019-04-27T05:24:19.942Z,10.50
2019-04-27T05:27:09.207Z,10.60
2019-04-27T05:29:58.260Z,10.80
2019-04-27T05:32:46.168Z,11.00
2019-04-27T05:35:34.319Z,11.10
2019-04-27T05:38:22.710Z,11.10
2019-04-27T05:41:11.187Z,11.20
2019-04-27T05:44:18.441Z,11.30
2019-04-27T05:47:31.583Z,11.30
2019-04-27T05:50:21.986Z,11.30
2019-04-27T05:53:08.745Z,11.40
2019-04-27T05:55:57.056Z,11.60
2019-04-27T05:58:45.214Z,11.50
2019-04-27T06:01:33.179Z,11.50
2019-04-27T06:04:21.698Z,11.50
2019-04-27T06:07:09.603Z,11.50
2019-04-27T06:09:59.528Z,11.50
2019-04-27T06:12:48.501Z,11.60
2019-04-27T06:15:38.847Z,11.70
2019-04-27T06:18:27.207Z,11.80
2019-04-27T06:21:15.238Z,12.00
2019-04-27T06:24:04.027Z,12.10
2019-04-27T06:26:51.619Z,12.10
2019-04-27T06:29:40.913Z,12.20
2019-04-27T06:32:29.686Z,12.20
2019-04-27T06:35:18.632Z,12.20
2019-04-27T06:38:07.038Z,12.10
2019-04-27T06:40:54.944Z,12.20
2019-04-27T06:43:43.463Z,12.10
2019-04-27T06:46:31.071Z,12.10
2019-04-27T06:49:19.487Z,12.20
2019-04-27T06:52:08.675Z,12.30
2019-04-27T06:54:57.071Z,12.30
2019-04-27T06:57:45.043Z,12.30
2019-04-27T07:00:33.507Z,12.20
2019-04-27T07:03:21.771Z,12.30
2019-04-27T07:06:09.535Z,12.20
2019-04-27T07:08:59.785Z,12.30
2019-04-27T07:11:49.402Z,12.30
2019-04-27T07:14:50.321Z,12.30
2019-04-27T07:17:28.825Z,12.30
2019-04-27T07:20:16.555Z,12.30
2019-04-27T07:23:04.610Z,12.30
2019-04-27T07:25:52.547Z,12.20
2019-04-27T07:28:41.034Z,12.20
2019-04-27T07:31:31.747Z,12.20
2019-04-27T07:34:19.099Z,12.20
2019-04-27T07:37:09.294Z,12.20
2019-04-27T07:39:56.951Z,12.10
2019-04-27T07:42:46.148Z,12.00
2019-04-27T07:45:39.443Z,11.90
2019-04-27T07:48:28.643Z,11.80
2019-04-27T07:51:29.558Z,11.70
2019-04-27T07:54:06.827Z,11.60
2019-04-27T07:56:55.259Z,11.40
2019-04-27T07:59:43.952Z,11.20
2019-04-27T08:02:31.786Z,11.20
2019-04-27T08:05:20.566Z,11.20
2019-04-27T08:08:09.021Z,11.20
2019-04-27T08:10:57.307Z,11.20
2019-04-27T08:13:44.797Z,11.20
2019-04-27T08:16:33.267Z,11.30
2019-04-27T08:19:21.196Z,11.20
2019-04-27T08:22:09.781Z,11.30
2019-04-27T08:24:59.485Z,11.30
2019-04-27T08:28:15.856Z,11.40
2019-04-27T08:31:20.467Z,11.40
2019-04-27T08:34:27.274Z,11.40
2019-04-27T08:37:15.262Z,11.40
2019-04-27T08:40:03.782Z,11.50
2019-04-27T08:42:51.774Z,11.50
2019-04-27T08:45:39.402Z,11.40
2019-04-27T08:48:36.034Z,11.30
2019-04-27T08:51:16.792Z,11.30
2019-04-27T08:54:05.157Z,11.30
2019-04-27T08:56:53.408Z,11.30
2019-04-27T08:59:41.388Z,11.40
2019-04-27T09:02:39.812Z,11.60
2019-04-27T09:05:25.468Z,11.60
2019-04-27T09:08:29.118Z,11.80
2019-04-27T09:11:22.692Z,11.90
2019-04-27T09:14:16.551Z,11.90
2019-04-27T09:17:33.409Z,11.90
2019-04-27T09:20:24.212Z,12.00
2019-04-27T09:23:12.238Z,12.00
2019-04-27T09:26:00.755Z,11.90
2019-04-27T09:28:49.293Z,12.20
2019-04-27T09:31:39.438Z,12.10
2019-04-27T09:34:27.740Z,12.10
2019-04-27T09:37:15.995Z,12.10
2019-04-27T09:40:03.901Z,12.20
2019-04-27T09:42:52.072Z,12.40
2019-04-27T09:45:40.726Z,12.40
2019-04-27T09:48:28.999Z,12.30
2019-04-27T09:51:17.032Z,12.00
2019-04-27T09:54:05.898Z,12.00
2019-04-27T09:56:56.122Z,11.90
2019-04-27T09:59:46.033Z,11.70
2019-04-27T10:02:34.496Z,11.50
2019-04-27T10:05:22.718Z,11.50
2019-04-27T10:08:10.282Z,11.60
2019-04-27T10:10:58.184Z,11.60
2019-04-27T10:13:46.541Z,11.60
2019-04-27T10:16:36.577Z,11.60
2019-04-27T10:19:31.150Z,11.70
2019-04-27T10:22:15.972Z,11.90
2019-04-27T10:25:04.715Z,12.20
2019-04-27T10:27:58.983Z,12.50
2019-04-27T10:30:46.718Z,12.40
2019-04-27T10:33:35.884Z,12.50
2019-04-27T10:36:39.571Z,12.30
2019-04-27T10:39:27.862Z,12.30
2019-04-27T10:42:16.231Z,12.30
2019-04-27T10:45:06.276Z,12.20
2019-04-27T10:47:54.016Z,12.30
2019-04-27T10:50:42.437Z,12.60
2019-04-27T10:53:30.889Z,12.80
2019-04-27T10:56:18.951Z,13.20
2019-04-27T10:59:09.634Z,13.40
2019-04-27T11:01:57.108Z,13.20
2019-04-27T11:05:16.179Z,13.00
2019-04-27T11:08:03.723Z,12.10
2019-04-27T11:10:51.569Z,11.20
2019-04-27T11:13:39.486Z,10.80
2019-04-27T11:16:27.447Z,10.70
2019-04-27T11:19:16.863Z,10.70
2019-04-27T11:22:07.119Z,10.80
2019-04-27T11:24:56.407Z,10.80
2019-04-27T11:27:45.002Z,10.90
2019-04-27T11:30:33.612Z,11.10
2019-04-27T11:33:21.572Z,11.20
2019-04-27T11:36:27.591Z,11.40
2019-04-27T11:39:19.637Z,11.40
2019-04-27T11:42:06.080Z,11.40
2019-04-27T11:44:57.507Z,11.40
2019-04-27T11:47:44.412Z,11.40
2019-04-27T11:50:32.609Z,11.30
2019-04-27T11:53:23.053Z,11.30
2019-04-27T11:56:10.636Z,11.40
2019-04-27T11:58:58.427Z,11.10
2019-04-27T12:01:46.555Z,10.80
2019-04-27T12:04:36.418Z,10.80
2019-04-27T12:07:24.845Z,10.90
2019-04-27T12:10:13.453Z,11.00
2019-04-27T12:13:01.475Z,11.40
2019-04-27T12:15:49.412Z,11.40
2019-04-27T12:18:37.969Z,11.60
2019-04-27T12:21:26.930Z,11.60
2019-04-27T12:24:16.151Z,11.70
2019-04-27T12:27:20.351Z,11.80
2019-04-27T12:30:27.448Z,11.80
2019-04-27T12:33:15.287Z,11.50
2019-04-27T12:36:03.107Z,11.30
2019-04-27T12:38:52.000Z,11.20
2019-04-27T12:41:40.092Z,11.00
2019-04-27T12:44:27.747Z,10.80
2019-04-27T12:47:16.422Z,10.60
2019-04-27T12:50:06.174Z,10.60
2019-04-27T12:52:58.034Z,10.50
2019-04-27T12:55:59.571Z,10.40
2019-04-27T12:58:51.811Z,10.30
2019-04-27T13:01:40.259Z,10.30
2019-04-27T13:04:28.880Z,10.40
2019-04-27T13:07:17.424Z,10.50
2019-04-27T13:10:06.024Z,10.70
2019-04-27T13:12:53.951Z,11.10
2019-04-27T13:15:42.996Z,12.10
2019-04-27T13:18:30.873Z,12.80
2019-04-27T13:21:20.876Z,13.30
2019-04-27T13:24:08.542Z,13.20
2019-04-27T13:26:57.026Z,12.80
2019-04-27T13:29:46.650Z,12.40
2019-04-27T13:32:36.441Z,12.50
2019-04-27T13:35:25.852Z,12.40
2019-04-27T13:38:17.799Z,12.60
2019-04-27T13:41:11.795Z,12.50
2019-04-27T13:43:59.759Z,12.60
2019-04-27T13:47:06.207Z,12.50
2019-04-27T13:50:08.715Z,12.40
2019-04-27T13:52:57.030Z,12.30
2019-04-27T13:55:46.478Z,12.30
2019-04-27T13:58:34.267Z,12.30
2019-04-27T14:01:22.139Z,12.50
2019-04-27T14:04:10.767Z,13.00
2019-04-27T14:06:59.190Z,13.90
2019-04-27T14:09:48.579Z,14.60
2019-04-27T14:12:38.441Z,15.60
2019-04-27T14:15:26.255Z,17.80
2019-04-27T14:18:14.863Z,18.60
2019-04-27T14:21:02.412Z,20.20
2019-04-27T14:23:50.828Z,19.60
2019-04-27T14:26:39.796Z,18.00
2019-04-27T14:29:28.196Z,17.10
2019-04-27T14:32:16.228Z,16.90
2019-04-27T14:35:04.239Z,16.50
2019-04-27T14:37:52.550Z,15.70
2019-04-27T14:40:40.348Z,15.10
2019-04-27T14:43:28.743Z,15.20
2019-04-27T14:46:18.737Z,15.30
2019-04-27T14:49:07.158Z,15.60
2019-04-27T14:51:58.536Z,15.70
2019-04-27T14:54:50.228Z,15.50
2019-04-27T14:57:36.476Z,15.90
2019-04-27T15:00:25.832Z,16.60
2019-04-27T15:03:14.471Z,17.50
2019-04-27T15:06:02.515Z,18.80
2019-04-27T15:08:50.844Z,19.10
2019-04-27T15:11:39.246Z,18.80
2019-04-27T15:14:31.058Z,17.20
2019-04-27T15:17:23.352Z,15.90
2019-04-27T15:20:14.684Z,15.00
2019-04-27T15:23:02.665Z,14.40
2019-04-27T15:25:50.662Z,14.10
2019-04-27T15:28:40.122Z,14.20
2019-04-27T15:31:36.240Z,14.50
2019-04-27T15:34:35.783Z,14.60
2019-04-27T15:37:34.227Z,14.60
2019-04-27T15:40:43.745Z,15.40
2019-04-27T15:43:31.419Z,15.60
2019-04-27T15:46:19.417Z,15.40
2019-04-27T15:49:10.444Z,14.70
2019-04-27T15:51:58.423Z,14.00
2019-04-27T15:54:48.122Z,13.60
2019-04-27T15:57:35.934Z,13.50
2019-04-27T16:00:30.030Z,13.50
2019-04-27T16:03:18.494Z,13.40
2019-04-27T16:06:08.235Z,12.90
2019-04-27T16:08:56.839Z,12.20
2019-04-27T16:11:50.130Z,11.90
2019-04-27T16:14:36.448Z,11.50
2019-04-27T16:17:24.311Z,11.30
2019-04-27T16:20:22.082Z,11.00
2019-04-27T16:23:05.816Z,10.90
2019-04-27T16:25:55.087Z,10.80
2019-04-27T16:28:49.698Z,10.80
2019-04-27T16:31:36.055Z,10.80
2019-04-27T16:34:23.495Z,10.80
2019-04-27T16:37:13.969Z,10.80
2019-04-27T16:40:02.831Z,10.80
2019-04-27T16:42:54.343Z,10.80
2019-04-27T16:45:40.231Z,10.90
2019-04-27T16:48:34.334Z,11.00
2019-04-27T16:51:18.318Z,11.10
2019-04-27T16:54:06.281Z,11.20
2019-04-27T16:57:02.555Z,11.20
2019-04-27T16:59:50.610Z,11.40
2019-04-27T17:02:34.628Z,11.40
2019-04-27T17:05:24.427Z,11.40
2019-04-27T17:08:21.482Z,11.50
2019-04-27T17:11:08.304Z,11.50
2019-04-27T17:13:58.878Z,11.40
2019-04-27T17:16:59.460Z,11.40
2019-04-27T17:19:52.048Z,11.30
2019-04-27T17:22:40.123Z,11.40
2019-04-27T17:25:33.076Z,11.30
2019-04-27T17:28:18.490Z,11.40
2019-04-27T17:31:08.522Z,11.30
2019-04-27T17:34:00.567Z,11.40
2019-04-27T17:36:54.510Z,11.30
2019-04-27T17:39:38.881Z,11.40
2019-04-27T17:42:29.206Z,11.40
2019-04-27T17:45:16.463Z,11.30
2019-04-27T17:48:07.342Z,11.20
2019-04-27T17:50:55.885Z,11.30
2019-04-27T17:53:44.199Z,11.30
2019-04-27T17:56:35.887Z,11.20
2019-04-27T17:59:22.072Z,11.20
2019-04-27T18:02:10.514Z,11.20
2019-04-27T18:04:58.879Z,11.20
2019-04-27T18:07:48.575Z,11.20
2019-04-27T18:10:36.795Z,11.10
2019-04-27T18:13:25.493Z,11.10
2019-04-27T18:16:15.421Z,11.10
2019-04-27T18:19:18.546Z,11.10
2019-04-27T18:22:07.052Z,11.00
2019-04-27T18:25:07.440Z,10.90
2019-04-27T18:28:08.109Z,10.80
2019-04-27T18:31:05.214Z,10.70
2019-04-27T18:33:53.107Z,10.60
2019-04-27T18:36:43.871Z,10.50
2019-04-27T18:39:31.170Z,10.20
2019-04-27T18:42:23.263Z,9.30
2019-04-27T18:45:09.482Z,8.90
2019-04-27T18:48:06.665Z,8.60
2019-04-27T18:51:01.575Z,8.50
2019-04-27T18:53:49.962Z,8.40
2019-04-27T18:56:41.578Z,8.40
2019-04-27T18:59:29.067Z,8.30
2019-04-27T19:02:18.468Z,8.20
2019-04-27T19:05:08.875Z,8.20
2019-04-27T19:07:56.952Z,8.30
2019-04-27T19:10:45.059Z,8.30
2019-04-27T19:13:33.595Z,8.30
2019-04-27T19:16:22.431Z,8.40
2019-04-27T19:19:10.771Z,8.40
2019-04-27T19:21:59.020Z,8.40
2019-04-27T19:24:47.312Z,8.50
2019-04-27T19:28:08.438Z,8.50
2019-04-27T19:31:00.158Z,8.50
2019-04-27T19:33:48.769Z,8.50
2019-04-27T19:36:38.701Z,8.60
2019-04-27T19:39:28.598Z,8.60
2019-04-27T19:42:18.400Z,8.50
2019-04-27T19:45:06.867Z,8.50
2019-04-27T19:47:54.740Z,8.50
2019-04-27T19:50:42.239Z,8.40
2019-04-27T19:53:30.323Z,8.50
2019-04-27T19:56:19.390Z,8.50
2019-04-27T19:59:13.608Z,8.60
2019-04-27T20:02:04.671Z,8.60
2019-04-27T20:05:01.551Z,8.70
2019-04-27T20:07:49.850Z,8.70
2019-04-27T20:10:38.178Z,8.80
2019-04-27T20:13:26.447Z,8.80
2019-04-27T20:16:14.019Z,8.80
2019-04-27T20:19:02.367Z,8.80
2019-04-27T20:21:50.913Z,8.80
2019-04-27T20:24:41.393Z,8.70
2019-04-27T20:27:32.137Z,8.70
2019-04-27T20:30:21.007Z,8.70
2019-04-27T20:33:10.934Z,8.70
2019-04-27T20:35:58.835Z,8.70
2019-04-27T20:38:46.767Z,8.70
2019-04-27T20:41:34.903Z,8.70
2019-04-27T20:44:23.763Z,8.70
2019-04-27T20:47:11.960Z,8.80
2019-04-27T20:50:00.680Z,8.60
2019-04-27T20:52:53.733Z,8.60
2019-04-27T20:55:43.239Z,8.70
2019-04-27T20:58:31.750Z,8.70
2019-04-27T21:01:19.383Z,8.70
2019-04-27T21:04:07.364Z,8.70
2019-04-27T21:06:58.582Z,8.70
2019-04-27T21:09:47.282Z,8.70
2019-04-27T21:12:35.611Z,8.70
2019-04-27T21:15:24.226Z,8.70
2019-04-27T21:18:12.427Z,8.70
2019-04-27T21:21:01.228Z,8.70
2019-04-27T21:23:51.359Z,8.70
2019-04-27T21:26:39.002Z,8.70
2019-04-27T21:29:27.331Z,8.70
2019-04-27T21:32:15.711Z,8.70
2019-04-27T21:35:04.044Z,8.70
2019-04-27T21:37:51.622Z,8.70
2019-04-27T21:40:40.883Z,8.70
2019-04-27T21:43:29.423Z,8.70
2019-04-27T21:46:18.235Z,8.70
2019-04-27T21:49:06.964Z,8.70
2019-04-27T21:52:12.713Z,8.60
2019-04-27T21:54:58.739Z,8.60
2019-04-27T21:57:47.247Z,8.60
2019-04-27T22:00:55.635Z,8.70
2019-04-27T22:03:43.703Z,8.70
2019-04-27T22:06:32.478Z,8.70
2019-04-27T22:09:21.119Z,8.70
2019-04-27T22:12:11.093Z,8.70
2019-04-27T22:14:59.054Z,8.80
2019-04-27T22:17:47.007Z,8.80
2019-04-27T22:20:35.578Z,8.80
2019-04-27T22:23:33.248Z,8.80
2019-04-27T22:26:21.468Z,8.70
2019-04-27T22:29:12.031Z,8.70
2019-04-27T22:32:01.646Z,8.70
2019-04-27T22:34:50.103Z,8.80
2019-04-27T22:37:38.651Z,8.80
2019-04-27T22:40:50.881Z,9.00
2019-04-27T22:44:01.347Z,8.90
2019-04-27T22:46:50.335Z,9.00
2019-04-27T22:49:38.687Z,9.10
2019-04-27T22:52:26.244Z,9.10
2019-04-27T22:55:14.604Z,9.10
2019-04-27T22:58:08.803Z,9.10
2019-04-27T23:01:07.628Z,9.10
2019-04-27T23:03:56.517Z,9.10
2019-04-27T23:06:44.019Z,9.20
2019-04-27T23:09:32.285Z,9.10
2019-04-27T23:12:21.327Z,9.20
2019-04-27T23:15:13.176Z,9.20
2019-04-27T23:18:00.866Z,9.10
2019-04-27T23:20:48.850Z,9.10
2019-04-27T23:23:37.267Z,9.00
2019-04-27T23:26:24.919Z,9.10
2019-04-27T23:29:15.864Z,9.00
2019-04-27T23:32:08.195Z,9.00
2019-04-27T23:34:55.875Z,9.00
2019-04-27T23:37:43.455Z,8.90
2019-04-27T23:40:31.765Z,8.90
2019-04-27T23:43:20.111Z,8.90
2019-04-27T23:46:08.840Z,8.90
2019-04-27T23:48:56.572Z,8.90
2019-04-27T23:51:49.383Z,8.80
2019-04-27T23:54:37.119Z,8.80
2019-04-27T23:57:25.803Z,8.80
